sensor_id;sensor_type;location;lat;lon;timestamp;pressure;altitude;pressure_sealevel;temperature
34807;BMP180;18310;55.586;12.286;2022-12-18T00:01:01;102618.00;;;6.70
34807;BMP180;18310;55.586;12.286;2022-12-18T00:04:24;102615.00;;;6.70
34807;BMP180;18310;55.586;12.286;2022-12-18T00:07:29;102617.00;;;6.70
34807;BMP180;18310;55.586;12.286;2022-12-18T00:10:32;102618.00;;;6.70
34807;BMP180;18310;55.586;12.286;2022-12-18T00:13:36;102610.00;;;6.70
34807;BMP180;18310;55.586;12.286;2022-12-18T00:16:42;102606.00;;;6.70
34807;BMP180;18310;55.586;12.286;2022-12-18T00:19:45;102620.00;;;6.70
34807;BMP180;18310;55.586;12.286;2022-12-18T00:22:49;102630.00;;;6.70
34807;BMP180;18310;55.586;12.286;2022-12-18T00:25:52;102620.00;;;6.70
34807;BMP180;18310;55.586;12.286;2022-12-18T00:28:59;102614.00;;;6.70
34807;BMP180;18310;55.586;12.286;2022-12-18T00:32:03;102613.00;;;6.70
34807;BMP180;18310;55.586;12.286;2022-12-18T00:35:07;102612.00;;;6.70
34807;BMP180;18310;55.586;12.286;2022-12-18T00:38:12;102608.00;;;6.70
34807;BMP180;18310;55.586;12.286;2022-12-18T00:41:16;102602.00;;;6.80
34807;BMP180;18310;55.586;12.286;2022-12-18T00:44:40;102604.00;;;6.80
34807;BMP180;18310;55.586;12.286;2022-12-18T00:47:43;102597.00;;;6.80
34807;BMP180;18310;55.586;12.286;2022-12-18T00:50:48;102613.00;;;6.80
34807;BMP180;18310;55.586;12.286;2022-12-18T00:53:53;102620.00;;;6.80
34807;BMP180;18310;55.586;12.286;2022-12-18T00:56:56;102615.00;;;6.80
34807;BMP180;18310;55.586;12.286;2022-12-18T00:59:59;102607.00;;;6.90
34807;BMP180;18310;55.586;12.286;2022-12-18T01:03:03;102600.00;;;6.90
34807;BMP180;18310;55.586;12.286;2022-12-18T01:06:07;102603.00;;;6.90
34807;BMP180;18310;55.586;12.286;2022-12-18T01:09:12;102612.00;;;6.90
34807;BMP180;18310;55.586;12.286;2022-12-18T01:12:15;102612.00;;;6.90
34807;BMP180;18310;55.586;12.286;2022-12-18T01:15:19;102617.00;;;6.90
34807;BMP180;18310;55.586;12.286;2022-12-18T01:18:23;102617.00;;;6.90
34807;BMP180;18310;55.586;12.286;2022-12-18T01:21:26;102616.00;;;6.90
34807;BMP180;18310;55.586;12.286;2022-12-18T01:24:31;102616.00;;;6.90
34807;BMP180;18310;55.586;12.286;2022-12-18T01:27:34;102619.00;;;6.90
34807;BMP180;18310;55.586;12.286;2022-12-18T01:30:37;102628.00;;;7.00
34807;BMP180;18310;55.586;12.286;2022-12-18T01:33:40;102622.00;;;7.00
34807;BMP180;18310;55.586;12.286;2022-12-18T01:36:43;102629.00;;;7.00
34807;BMP180;18310;55.586;12.286;2022-12-18T01:39:48;102625.00;;;6.90
34807;BMP180;18310;55.586;12.286;2022-12-18T01:42:52;102638.00;;;7.00
34807;BMP180;18310;55.586;12.286;2022-12-18T01:45:59;102641.00;;;7.00
34807;BMP180;18310;55.586;12.286;2022-12-18T01:49:02;102635.00;;;7.00
34807;BMP180;18310;55.586;12.286;2022-12-18T01:52:05;102642.00;;;7.00
34807;BMP180;18310;55.586;12.286;2022-12-18T01:55:12;102639.00;;;7.00
34807;BMP180;18310;55.586;12.286;2022-12-18T01:58:17;102658.00;;;7.00
34807;BMP180;18310;55.586;12.286;2022-12-18T02:01:21;102641.00;;;7.00
34807;BMP180;18310;55.586;12.286;2022-12-18T02:04:27;102645.00;;;7.00
34807;BMP180;18310;55.586;12.286;2022-12-18T02:07:42;102653.00;;;7.10
34807;BMP180;18310;55.586;12.286;2022-12-18T02:11:01;102647.00;;;7.10
34807;BMP180;18310;55.586;12.286;2022-12-18T02:14:18;102665.00;;;7.10
34807;BMP180;18310;55.586;12.286;2022-12-18T02:17:33;102662.00;;;7.10
34807;BMP180;18310;55.586;12.286;2022-12-18T02:20:45;102659.00;;;7.10
34807;BMP180;18310;55.586;12.286;2022-12-18T02:23:59;102643.00;;;7.10
34807;BMP180;18310;55.586;12.286;2022-12-18T02:27:10;102653.00;;;7.10
34807;BMP180;18310;55.586;12.286;2022-12-18T02:30:15;102652.00;;;7.10
34807;BMP180;18310;55.586;12.286;2022-12-18T02:33:20;102668.00;;;7.10
34807;BMP180;18310;55.586;12.286;2022-12-18T02:36:25;102670.00;;;7.10
34807;BMP180;18310;55.586;12.286;2022-12-18T02:39:30;102664.00;;;7.10
34807;BMP180;18310;55.586;12.286;2022-12-18T02:42:36;102668.00;;;7.10
34807;BMP180;18310;55.586;12.286;2022-12-18T02:45:50;102668.00;;;7.20
34807;BMP180;18310;55.586;12.286;2022-12-18T02:49:02;102653.00;;;7.10
34807;BMP180;18310;55.586;12.286;2022-12-18T02:52:24;102658.00;;;7.20
34807;BMP180;18310;55.586;12.286;2022-12-18T02:55:48;102644.00;;;7.20
34807;BMP180;18310;55.586;12.286;2022-12-18T02:59:02;102640.00;;;7.20
34807;BMP180;18310;55.586;12.286;2022-12-18T03:02:23;102641.00;;;7.20
34807;BMP180;18310;55.586;12.286;2022-12-18T03:05:34;102631.00;;;7.30
34807;BMP180;18310;55.586;12.286;2022-12-18T03:08:44;102629.00;;;7.30
34807;BMP180;18310;55.586;12.286;2022-12-18T03:11:54;102634.00;;;7.40
34807;BMP180;18310;55.586;12.286;2022-12-18T03:15:23;102648.00;;;7.40
34807;BMP180;18310;55.586;12.286;2022-12-18T03:18:34;102649.00;;;7.50
34807;BMP180;18310;55.586;12.286;2022-12-18T03:21:42;102657.00;;;7.50
34807;BMP180;18310;55.586;12.286;2022-12-18T03:24:48;102656.00;;;7.50
34807;BMP180;18310;55.586;12.286;2022-12-18T03:27:56;102660.00;;;7.60
34807;BMP180;18310;55.586;12.286;2022-12-18T03:31:04;102659.00;;;7.60
34807;BMP180;18310;55.586;12.286;2022-12-18T03:34:16;102659.00;;;7.60
34807;BMP180;18310;55.586;12.286;2022-12-18T03:37:20;102664.00;;;7.50
34807;BMP180;18310;55.586;12.286;2022-12-18T03:40:31;102656.00;;;7.60
34807;BMP180;18310;55.586;12.286;2022-12-18T03:43:43;102660.00;;;7.60
34807;BMP180;18310;55.586;12.286;2022-12-18T03:46:58;102659.00;;;7.70
34807;BMP180;18310;55.586;12.286;2022-12-18T03:50:12;102666.00;;;7.70
34807;BMP180;18310;55.586;12.286;2022-12-18T03:53:29;102660.00;;;7.70
34807;BMP180;18310;55.586;12.286;2022-12-18T03:56:40;102654.00;;;7.70
34807;BMP180;18310;55.586;12.286;2022-12-18T03:59:47;102649.00;;;7.70
34807;BMP180;18310;55.586;12.286;2022-12-18T04:02:56;102639.00;;;7.70
34807;BMP180;18310;55.586;12.286;2022-12-18T04:06:02;102654.00;;;7.80
34807;BMP180;18310;55.586;12.286;2022-12-18T04:09:06;102657.00;;;7.70
34807;BMP180;18310;55.586;12.286;2022-12-18T04:12:09;102657.00;;;7.80
34807;BMP180;18310;55.586;12.286;2022-12-18T04:15:13;102646.00;;;7.80
34807;BMP180;18310;55.586;12.286;2022-12-18T04:18:19;102648.00;;;7.80
34807;BMP180;18310;55.586;12.286;2022-12-18T04:21:22;102651.00;;;7.90
34807;BMP180;18310;55.586;12.286;2022-12-18T04:24:25;102657.00;;;7.90
34807;BMP180;18310;55.586;12.286;2022-12-18T04:27:28;102642.00;;;8.00
34807;BMP180;18310;55.586;12.286;2022-12-18T04:30:31;102645.00;;;8.00
34807;BMP180;18310;55.586;12.286;2022-12-18T04:33:35;102651.00;;;8.00
34807;BMP180;18310;55.586;12.286;2022-12-18T04:36:39;102643.00;;;8.00
34807;BMP180;18310;55.586;12.286;2022-12-18T04:39:42;102640.00;;;8.00
34807;BMP180;18310;55.586;12.286;2022-12-18T04:42:45;102655.00;;;8.00
34807;BMP180;18310;55.586;12.286;2022-12-18T04:45:48;102667.00;;;7.90
34807;BMP180;18310;55.586;12.286;2022-12-18T04:48:53;102684.00;;;7.90
34807;BMP180;18310;55.586;12.286;2022-12-18T04:51:56;102685.00;;;7.90
34807;BMP180;18310;55.586;12.286;2022-12-18T04:54:59;102676.00;;;7.90
34807;BMP180;18310;55.586;12.286;2022-12-18T04:58:02;102656.00;;;7.80
34807;BMP180;18310;55.586;12.286;2022-12-18T05:01:06;102661.00;;;7.80
34807;BMP180;18310;55.586;12.286;2022-12-18T05:04:11;102676.00;;;7.80
34807;BMP180;18310;55.586;12.286;2022-12-18T05:07:14;102678.00;;;7.70
34807;BMP180;18310;55.586;12.286;2022-12-18T05:10:17;102682.00;;;7.70
34807;BMP180;18310;55.586;12.286;2022-12-18T05:13:20;102667.00;;;7.70
34807;BMP180;18310;55.586;12.286;2022-12-18T05:16:23;102682.00;;;7.80
34807;BMP180;18310;55.586;12.286;2022-12-18T05:19:28;102676.00;;;7.80
34807;BMP180;18310;55.586;12.286;2022-12-18T05:22:31;102683.00;;;7.80
34807;BMP180;18310;55.586;12.286;2022-12-18T05:25:34;102683.00;;;7.80
34807;BMP180;18310;55.586;12.286;2022-12-18T05:28:37;102680.00;;;7.80
34807;BMP180;18310;55.586;12.286;2022-12-18T05:31:40;102687.00;;;7.80
34807;BMP180;18310;55.586;12.286;2022-12-18T05:34:45;102673.00;;;7.80
34807;BMP180;18310;55.586;12.286;2022-12-18T05:37:48;102675.00;;;7.80
34807;BMP180;18310;55.586;12.286;2022-12-18T05:40:52;102685.00;;;7.80
34807;BMP180;18310;55.586;12.286;2022-12-18T05:43:56;102689.00;;;7.70
34807;BMP180;18310;55.586;12.286;2022-12-18T05:46:59;102696.00;;;7.70
34807;BMP180;18310;55.586;12.286;2022-12-18T05:50:05;102698.00;;;7.70
34807;BMP180;18310;55.586;12.286;2022-12-18T05:53:09;102691.00;;;7.70
34807;BMP180;18310;55.586;12.286;2022-12-18T05:56:16;102704.00;;;7.80
34807;BMP180;18310;55.586;12.286;2022-12-18T05:59:20;102705.00;;;7.80
34807;BMP180;18310;55.586;12.286;2022-12-18T06:02:23;102702.00;;;7.80
34807;BMP180;18310;55.586;12.286;2022-12-18T06:05:28;102702.00;;;7.90
34807;BMP180;18310;55.586;12.286;2022-12-18T06:08:31;102700.00;;;7.90
34807;BMP180;18310;55.586;12.286;2022-12-18T06:11:36;102696.00;;;7.90
34807;BMP180;18310;55.586;12.286;2022-12-18T06:14:41;102703.00;;;7.90
34807;BMP180;18310;55.586;12.286;2022-12-18T06:17:44;102712.00;;;7.90
34807;BMP180;18310;55.586;12.286;2022-12-18T06:20:56;102717.00;;;8.00
34807;BMP180;18310;55.586;12.286;2022-12-18T06:24:00;102717.00;;;8.00
34807;BMP180;18310;55.586;12.286;2022-12-18T06:27:03;102723.00;;;8.00
34807;BMP180;18310;55.586;12.286;2022-12-18T06:30:08;102719.00;;;8.10
34807;BMP180;18310;55.586;12.286;2022-12-18T06:33:11;102716.00;;;8.10
34807;BMP180;18310;55.586;12.286;2022-12-18T06:36:16;102725.00;;;8.10
34807;BMP180;18310;55.586;12.286;2022-12-18T06:39:19;102721.00;;;8.10
34807;BMP180;18310;55.586;12.286;2022-12-18T06:42:22;102717.00;;;8.20
34807;BMP180;18310;55.586;12.286;2022-12-18T06:45:25;102727.00;;;8.10
34807;BMP180;18310;55.586;12.286;2022-12-18T06:48:29;102722.00;;;8.10
34807;BMP180;18310;55.586;12.286;2022-12-18T06:51:33;102731.00;;;8.20
34807;BMP180;18310;55.586;12.286;2022-12-18T06:54:36;102738.00;;;8.20
34807;BMP180;18310;55.586;12.286;2022-12-18T06:57:39;102733.00;;;8.10
34807;BMP180;18310;55.586;12.286;2022-12-18T07:00:42;102736.00;;;8.10
34807;BMP180;18310;55.586;12.286;2022-12-18T07:03:47;102758.00;;;8.10
34807;BMP180;18310;55.586;12.286;2022-12-18T07:06:55;102760.00;;;8.10
34807;BMP180;18310;55.586;12.286;2022-12-18T07:09:59;102758.00;;;8.10
34807;BMP180;18310;55.586;12.286;2022-12-18T07:13:02;102758.00;;;8.10
34807;BMP180;18310;55.586;12.286;2022-12-18T07:16:07;102758.00;;;8.10
34807;BMP180;18310;55.586;12.286;2022-12-18T07:19:19;102760.00;;;8.10
34807;BMP180;18310;55.586;12.286;2022-12-18T07:22:32;102755.00;;;8.20
34807;BMP180;18310;55.586;12.286;2022-12-18T07:25:36;102751.00;;;8.20
34807;BMP180;18310;55.586;12.286;2022-12-18T07:28:41;102759.00;;;8.20
34807;BMP180;18310;55.586;12.286;2022-12-18T07:31:44;102768.00;;;8.30
34807;BMP180;18310;55.586;12.286;2022-12-18T07:34:47;102771.00;;;8.30
34807;BMP180;18310;55.586;12.286;2022-12-18T07:37:52;102777.00;;;8.40
34807;BMP180;18310;55.586;12.286;2022-12-18T07:41:00;102778.00;;;8.40
34807;BMP180;18310;55.586;12.286;2022-12-18T07:44:03;102790.00;;;8.50
34807;BMP180;18310;55.586;12.286;2022-12-18T07:47:06;102792.00;;;8.50
34807;BMP180;18310;55.586;12.286;2022-12-18T07:50:13;102789.00;;;8.50
34807;BMP180;18310;55.586;12.286;2022-12-18T07:53:17;102798.00;;;8.60
34807;BMP180;18310;55.586;12.286;2022-12-18T07:56:21;102796.00;;;8.70
34807;BMP180;18310;55.586;12.286;2022-12-18T07:59:30;102809.00;;;8.80
34807;BMP180;18310;55.586;12.286;2022-12-18T08:02:33;102807.00;;;8.80
34807;BMP180;18310;55.586;12.286;2022-12-18T08:05:36;102807.00;;;8.90
34807;BMP180;18310;55.586;12.286;2022-12-18T08:08:40;102809.00;;;9.00
34807;BMP180;18310;55.586;12.286;2022-12-18T08:11:45;102815.00;;;9.10
34807;BMP180;18310;55.586;12.286;2022-12-18T08:14:48;102814.00;;;9.10
34807;BMP180;18310;55.586;12.286;2022-12-18T08:17:51;102817.00;;;9.10
34807;BMP180;18310;55.586;12.286;2022-12-18T08:20:54;102816.00;;;9.10
34807;BMP180;18310;55.586;12.286;2022-12-18T08:24:00;102816.00;;;9.20
34807;BMP180;18310;55.586;12.286;2022-12-18T08:27:03;102815.00;;;9.20
34807;BMP180;18310;55.586;12.286;2022-12-18T08:30:26;102814.00;;;9.20
34807;BMP180;18310;55.586;12.286;2022-12-18T08:33:30;102824.00;;;9.20
34807;BMP180;18310;55.586;12.286;2022-12-18T08:36:33;102829.00;;;9.20
34807;BMP180;18310;55.586;12.286;2022-12-18T08:39:37;102822.00;;;9.30
34807;BMP180;18310;55.586;12.286;2022-12-18T08:42:40;102834.00;;;9.30
34807;BMP180;18310;55.586;12.286;2022-12-18T08:46:01;102833.00;;;9.40
34807;BMP180;18310;55.586;12.286;2022-12-18T08:49:06;102828.00;;;9.40
34807;BMP180;18310;55.586;12.286;2022-12-18T08:52:09;102831.00;;;9.40
34807;BMP180;18310;55.586;12.286;2022-12-18T08:55:14;102834.00;;;9.40
34807;BMP180;18310;55.586;12.286;2022-12-18T08:58:17;102847.00;;;9.40
34807;BMP180;18310;55.586;12.286;2022-12-18T09:01:21;102822.00;;;9.40
34807;BMP180;18310;55.586;12.286;2022-12-18T09:04:24;102838.00;;;9.50
34807;BMP180;18310;55.586;12.286;2022-12-18T09:07:27;102837.00;;;9.40
34807;BMP180;18310;55.586;12.286;2022-12-18T09:10:31;102837.00;;;9.40
34807;BMP180;18310;55.586;12.286;2022-12-18T09:13:41;102838.00;;;9.50
34807;BMP180;18310;55.586;12.286;2022-12-18T09:16:44;102840.00;;;9.50
34807;BMP180;18310;55.586;12.286;2022-12-18T09:19:47;102858.00;;;9.40
34807;BMP180;18310;55.586;12.286;2022-12-18T09:22:51;102865.00;;;9.40
34807;BMP180;18310;55.586;12.286;2022-12-18T09:25:59;102848.00;;;9.40
34807;BMP180;18310;55.586;12.286;2022-12-18T09:29:03;102868.00;;;9.50
34807;BMP180;18310;55.586;12.286;2022-12-18T09:32:07;102855.00;;;9.50
34807;BMP180;18310;55.586;12.286;2022-12-18T09:35:10;102855.00;;;9.50
34807;BMP180;18310;55.586;12.286;2022-12-18T09:38:16;102861.00;;;9.50
34807;BMP180;18310;55.586;12.286;2022-12-18T09:41:40;102847.00;;;9.50
34807;BMP180;18310;55.586;12.286;2022-12-18T09:44:48;102853.00;;;9.40
34807;BMP180;18310;55.586;12.286;2022-12-18T09:47:54;102842.00;;;9.40
34807;BMP180;18310;55.586;12.286;2022-12-18T09:51:05;102831.00;;;9.40
34807;BMP180;18310;55.586;12.286;2022-12-18T09:54:18;102834.00;;;9.40
34807;BMP180;18310;55.586;12.286;2022-12-18T09:57:24;102842.00;;;9.40
34807;BMP180;18310;55.586;12.286;2022-12-18T10:00:28;102845.00;;;9.40
34807;BMP180;18310;55.586;12.286;2022-12-18T10:03:32;102848.00;;;9.30
34807;BMP180;18310;55.586;12.286;2022-12-18T10:06:41;102855.00;;;9.40
34807;BMP180;18310;55.586;12.286;2022-12-18T10:09:58;102848.00;;;9.40
34807;BMP180;18310;55.586;12.286;2022-12-18T10:13:20;102849.00;;;9.30
34807;BMP180;18310;55.586;12.286;2022-12-18T10:16:34;102854.00;;;9.30
34807;BMP180;18310;55.586;12.286;2022-12-18T10:19:43;102839.00;;;9.30
34807;BMP180;18310;55.586;12.286;2022-12-18T10:23:01;102854.00;;;9.20
34807;BMP180;18310;55.586;12.286;2022-12-18T10:26:08;102856.00;;;9.20
34807;BMP180;18310;55.586;12.286;2022-12-18T10:29:16;102849.00;;;9.20
34807;BMP180;18310;55.586;12.286;2022-12-18T10:32:22;102842.00;;;9.20
34807;BMP180;18310;55.586;12.286;2022-12-18T10:35:27;102854.00;;;9.20
34807;BMP180;18310;55.586;12.286;2022-12-18T10:38:31;102858.00;;;9.10
34807;BMP180;18310;55.586;12.286;2022-12-18T10:41:34;102863.00;;;9.10
34807;BMP180;18310;55.586;12.286;2022-12-18T10:44:39;102867.00;;;9.20
34807;BMP180;18310;55.586;12.286;2022-12-18T10:47:45;102873.00;;;9.20
34807;BMP180;18310;55.586;12.286;2022-12-18T10:50:51;102868.00;;;9.10
34807;BMP180;18310;55.586;12.286;2022-12-18T10:54:18;102877.00;;;9.20
34807;BMP180;18310;55.586;12.286;2022-12-18T10:57:34;102885.00;;;9.20
34807;BMP180;18310;55.586;12.286;2022-12-18T11:00:41;102880.00;;;9.20
34807;BMP180;18310;55.586;12.286;2022-12-18T11:03:46;102882.00;;;9.20
34807;BMP180;18310;55.586;12.286;2022-12-18T11:06:56;102883.00;;;9.30
34807;BMP180;18310;55.586;12.286;2022-12-18T11:10:02;102883.00;;;9.30
34807;BMP180;18310;55.586;12.286;2022-12-18T11:13:17;102883.00;;;9.30
34807;BMP180;18310;55.586;12.286;2022-12-18T11:16:22;102878.00;;;9.40
34807;BMP180;18310;55.586;12.286;2022-12-18T11:19:33;102888.00;;;9.40
34807;BMP180;18310;55.586;12.286;2022-12-18T11:22:37;102898.00;;;9.30
34807;BMP180;18310;55.586;12.286;2022-12-18T11:25:51;102896.00;;;9.40
34807;BMP180;18310;55.586;12.286;2022-12-18T11:29:09;102899.00;;;9.40
34807;BMP180;18310;55.586;12.286;2022-12-18T11:32:34;102885.00;;;9.40
34807;BMP180;18310;55.586;12.286;2022-12-18T11:35:45;102898.00;;;9.40
34807;BMP180;18310;55.586;12.286;2022-12-18T11:38:54;102895.00;;;9.50
34807;BMP180;18310;55.586;12.286;2022-12-18T11:42:04;102896.00;;;9.50
34807;BMP180;18310;55.586;12.286;2022-12-18T11:45:28;102908.00;;;9.60
34807;BMP180;18310;55.586;12.286;2022-12-18T11:48:41;102917.00;;;9.60
34807;BMP180;18310;55.586;12.286;2022-12-18T11:51:51;102912.00;;;9.60
34807;BMP180;18310;55.586;12.286;2022-12-18T11:55:01;102910.00;;;9.70
34807;BMP180;18310;55.586;12.286;2022-12-18T11:58:19;102908.00;;;9.70
34807;BMP180;18310;55.586;12.286;2022-12-18T12:01:46;102908.00;;;9.80
34807;BMP180;18310;55.586;12.286;2022-12-18T12:05:18;102919.00;;;9.80
34807;BMP180;18310;55.586;12.286;2022-12-18T12:08:34;102910.00;;;9.80
34807;BMP180;18310;55.586;12.286;2022-12-18T12:11:59;102915.00;;;9.90
34807;BMP180;18310;55.586;12.286;2022-12-18T12:15:19;102914.00;;;9.90
34807;BMP180;18310;55.586;12.286;2022-12-18T12:18:44;102906.00;;;10.00
34807;BMP180;18310;55.586;12.286;2022-12-18T12:21:59;102913.00;;;10.00
34807;BMP180;18310;55.586;12.286;2022-12-18T12:25:19;102909.00;;;9.90
34807;BMP180;18310;55.586;12.286;2022-12-18T12:28:52;102905.00;;;9.90
34807;BMP180;18310;55.586;12.286;2022-12-18T12:32:15;102900.00;;;9.80
34807;BMP180;18310;55.586;12.286;2022-12-18T12:35:35;102914.00;;;9.80
34807;BMP180;18310;55.586;12.286;2022-12-18T12:38:47;102904.00;;;9.60
34807;BMP180;18310;55.586;12.286;2022-12-18T12:41:54;102920.00;;;9.50
34807;BMP180;18310;55.586;12.286;2022-12-18T12:45:36;102924.00;;;9.50
34807;BMP180;18310;55.586;12.286;2022-12-18T12:48:46;102924.00;;;9.40
34807;BMP180;18310;55.586;12.286;2022-12-18T12:51:58;102915.00;;;9.40
34807;BMP180;18310;55.586;12.286;2022-12-18T12:58:36;102889.00;;;9.30
34807;BMP180;18310;55.586;12.286;2022-12-18T13:01:52;102887.00;;;9.20
34807;BMP180;18310;55.586;12.286;2022-12-18T13:05:11;102897.00;;;9.20
34807;BMP180;18310;55.586;12.286;2022-12-18T13:08:25;102898.00;;;9.20
34807;BMP180;18310;55.586;12.286;2022-12-18T13:11:38;102900.00;;;9.10
34807;BMP180;18310;55.586;12.286;2022-12-18T13:15:18;102905.00;;;9.10
34807;BMP180;18310;55.586;12.286;2022-12-18T13:18:23;102885.00;;;9.10
34807;BMP180;18310;55.586;12.286;2022-12-18T13:21:29;102898.00;;;9.20
34807;BMP180;18310;55.586;12.286;2022-12-18T13:24:33;102889.00;;;9.20
34807;BMP180;18310;55.586;12.286;2022-12-18T13:27:59;102896.00;;;9.20
34807;BMP180;18310;55.586;12.286;2022-12-18T13:31:04;102885.00;;;9.20
34807;BMP180;18310;55.586;12.286;2022-12-18T13:34:16;102899.00;;;9.20
34807;BMP180;18310;55.586;12.286;2022-12-18T13:37:44;102888.00;;;9.30
34807;BMP180;18310;55.586;12.286;2022-12-18T13:40:56;102904.00;;;9.30
34807;BMP180;18310;55.586;12.286;2022-12-18T13:44:17;102886.00;;;9.30
34807;BMP180;18310;55.586;12.286;2022-12-18T13:47:31;102905.00;;;9.30
34807;BMP180;18310;55.586;12.286;2022-12-18T13:50:35;102898.00;;;9.30
34807;BMP180;18310;55.586;12.286;2022-12-18T13:53:46;102889.00;;;9.30
34807;BMP180;18310;55.586;12.286;2022-12-18T13:56:51;102900.00;;;9.30
34807;BMP180;18310;55.586;12.286;2022-12-18T13:59:56;102906.00;;;9.30
34807;BMP180;18310;55.586;12.286;2022-12-18T14:03:00;102902.00;;;9.30
34807;BMP180;18310;55.586;12.286;2022-12-18T14:06:07;102890.00;;;9.30
34807;BMP180;18310;55.586;12.286;2022-12-18T14:09:15;102905.00;;;9.30
34807;BMP180;18310;55.586;12.286;2022-12-18T14:12:25;102904.00;;;9.30
34807;BMP180;18310;55.586;12.286;2022-12-18T14:15:55;102909.00;;;9.20
34807;BMP180;18310;55.586;12.286;2022-12-18T14:19:02;102908.00;;;9.20
34807;BMP180;18310;55.586;12.286;2022-12-18T14:22:19;102907.00;;;9.10
34807;BMP180;18310;55.586;12.286;2022-12-18T14:25:25;102910.00;;;9.10
34807;BMP180;18310;55.586;12.286;2022-12-18T14:28:29;102903.00;;;9.10
34807;BMP180;18310;55.586;12.286;2022-12-18T14:31:33;102910.00;;;9.00
34807;BMP180;18310;55.586;12.286;2022-12-18T14:34:36;102904.00;;;9.00
34807;BMP180;18310;55.586;12.286;2022-12-18T14:37:39;102902.00;;;9.00
34807;BMP180;18310;55.586;12.286;2022-12-18T14:40:43;102904.00;;;8.90
34807;BMP180;18310;55.586;12.286;2022-12-18T14:43:48;102899.00;;;8.90
34807;BMP180;18310;55.586;12.286;2022-12-18T14:46:53;102890.00;;;8.80
34807;BMP180;18310;55.586;12.286;2022-12-18T14:49:56;102880.00;;;8.80
34807;BMP180;18310;55.586;12.286;2022-12-18T14:53:00;102886.00;;;8.70
34807;BMP180;18310;55.586;12.286;2022-12-18T14:56:14;102885.00;;;8.70
34807;BMP180;18310;55.586;12.286;2022-12-18T14:59:22;102887.00;;;8.70
34807;BMP180;18310;55.586;12.286;2022-12-18T15:02:28;102876.00;;;8.60
34807;BMP180;18310;55.586;12.286;2022-12-18T15:05:32;102885.00;;;8.60
34807;BMP180;18310;55.586;12.286;2022-12-18T15:08:36;102895.00;;;8.50
34807;BMP180;18310;55.586;12.286;2022-12-18T15:11:46;102896.00;;;8.40
34807;BMP180;18310;55.586;12.286;2022-12-18T15:14:50;102905.00;;;8.40
34807;BMP180;18310;55.586;12.286;2022-12-18T15:18:04;102919.00;;;8.30
34807;BMP180;18310;55.586;12.286;2022-12-18T15:21:11;102915.00;;;8.20
34807;BMP180;18310;55.586;12.286;2022-12-18T15:24:24;102922.00;;;8.20
34807;BMP180;18310;55.586;12.286;2022-12-18T15:27:31;102922.00;;;8.10
34807;BMP180;18310;55.586;12.286;2022-12-18T15:30:37;102900.00;;;8.10
34807;BMP180;18310;55.586;12.286;2022-12-18T15:33:44;102902.00;;;8.10
34807;BMP180;18310;55.586;12.286;2022-12-18T15:36:50;102900.00;;;8.00
34807;BMP180;18310;55.586;12.286;2022-12-18T15:39:53;102903.00;;;8.00
34807;BMP180;18310;55.586;12.286;2022-12-18T15:42:57;102904.00;;;7.90
34807;BMP180;18310;55.586;12.286;2022-12-18T15:46:20;102913.00;;;7.90
34807;BMP180;18310;55.586;12.286;2022-12-18T15:49:25;102924.00;;;7.80
34807;BMP180;18310;55.586;12.286;2022-12-18T15:52:28;102926.00;;;7.80
34807;BMP180;18310;55.586;12.286;2022-12-18T15:55:34;102925.00;;;7.80
34807;BMP180;18310;55.586;12.286;2022-12-18T15:59:02;102925.00;;;7.70
34807;BMP180;18310;55.586;12.286;2022-12-18T16:02:16;102909.00;;;7.70
34807;BMP180;18310;55.586;12.286;2022-12-18T16:05:22;102906.00;;;7.60
34807;BMP180;18310;55.586;12.286;2022-12-18T16:08:26;102924.00;;;7.60
34807;BMP180;18310;55.586;12.286;2022-12-18T16:11:32;102908.00;;;7.70
34807;BMP180;18310;55.586;12.286;2022-12-18T16:14:43;102912.00;;;7.60
34807;BMP180;18310;55.586;12.286;2022-12-18T16:17:47;102905.00;;;7.60
34807;BMP180;18310;55.586;12.286;2022-12-18T16:20:53;102899.00;;;7.60
34807;BMP180;18310;55.586;12.286;2022-12-18T16:23:58;102903.00;;;7.60
34807;BMP180;18310;55.586;12.286;2022-12-18T16:27:01;102888.00;;;7.60
34807;BMP180;18310;55.586;12.286;2022-12-18T16:30:06;102905.00;;;7.60
34807;BMP180;18310;55.586;12.286;2022-12-18T16:33:10;102907.00;;;7.60
34807;BMP180;18310;55.586;12.286;2022-12-18T16:36:14;102898.00;;;7.60
34807;BMP180;18310;55.586;12.286;2022-12-18T16:39:17;102908.00;;;7.60
34807;BMP180;18310;55.586;12.286;2022-12-18T16:42:21;102916.00;;;7.60
34807;BMP180;18310;55.586;12.286;2022-12-18T16:45:27;102911.00;;;7.60
34807;BMP180;18310;55.586;12.286;2022-12-18T16:48:34;102909.00;;;7.60
34807;BMP180;18310;55.586;12.286;2022-12-18T16:51:40;102902.00;;;7.50
34807;BMP180;18310;55.586;12.286;2022-12-18T16:54:43;102900.00;;;7.50
34807;BMP180;18310;55.586;12.286;2022-12-18T16:57:46;102909.00;;;7.50
34807;BMP180;18310;55.586;12.286;2022-12-18T17:00:49;102910.00;;;7.50
34807;BMP180;18310;55.586;12.286;2022-12-18T17:03:53;102919.00;;;7.50
34807;BMP180;18310;55.586;12.286;2022-12-18T17:06:58;102913.00;;;7.50
34807;BMP180;18310;55.586;12.286;2022-12-18T17:10:01;102908.00;;;7.50
34807;BMP180;18310;55.586;12.286;2022-12-18T17:13:04;102914.00;;;7.50
34807;BMP180;18310;55.586;12.286;2022-12-18T17:16:08;102905.00;;;7.50
34807;BMP180;18310;55.586;12.286;2022-12-18T17:19:12;102897.00;;;7.50
34807;BMP180;18310;55.586;12.286;2022-12-18T17:22:20;102898.00;;;7.50
34807;BMP180;18310;55.586;12.286;2022-12-18T17:25:23;102896.00;;;7.50
34807;BMP180;18310;55.586;12.286;2022-12-18T17:28:27;102896.00;;;7.40
34807;BMP180;18310;55.586;12.286;2022-12-18T17:31:31;102898.00;;;7.40
34807;BMP180;18310;55.586;12.286;2022-12-18T17:34:34;102896.00;;;7.40
34807;BMP180;18310;55.586;12.286;2022-12-18T17:37:39;102881.00;;;7.40
34807;BMP180;18310;55.586;12.286;2022-12-18T17:40:42;102885.00;;;7.40
34807;BMP180;18310;55.586;12.286;2022-12-18T17:43:51;102873.00;;;7.40
34807;BMP180;18310;55.586;12.286;2022-12-18T17:46:54;102880.00;;;7.40
34807;BMP180;18310;55.586;12.286;2022-12-18T17:49:57;102869.00;;;7.30